Time;durP1;ratioP1;P1;durP2;ratioP2;P2;SDS_P1;SDS_P2;PMS_P1;PMS_P2;Temp;Humidity;BMP_temperature;BMP_pressure;BME280_temperature;BME280_humidity;BME280_pressure;Samples;Min_cycle;Max_cycle;Signal;HPM_P1;HPM_P2
2023/04/04 00:01:24;;;;;;;4.40;1.83;;;1.20;99.90;;;;;;4879026;29;20047;-70
2023/04/04 00:03:51;;;;;;;4.95;2.15;;;1.20;99.90;;;;;;4863271;29;20120;-70
2023/04/04 00:06:20;;;;;;;7.97;2.83;;;1.20;99.90;;;;;;4864379;29;20166;-70
2023/04/04 00:08:46;;;;;;;6.38;2.00;;;1.20;99.90;;;;;;4877097;29;20135;-70
2023/04/04 00:11:12;;;;;;;3.53;2.17;;;1.20;99.90;;;;;;4879000;29;20048;-70
2023/04/04 00:13:38;;;;;;;5.05;2.05;;;1.20;99.90;;;;;;4868775;29;20119;-70
2023/04/04 00:16:05;;;;;;;5.82;2.00;;;1.10;99.90;;;;;;4876828;29;20099;-70
2023/04/04 00:18:31;;;;;;;6.22;2.45;;;1.10;99.90;;;;;;4863806;29;20072;-70
2023/04/04 00:20:57;;;;;;;5.60;2.58;;;1.10;99.90;;;;;;4878631;29;20048;-70
2023/04/04 00:23:24;;;;;;;5.63;2.40;;;1.00;99.90;;;;;;4875070;29;20056;-70
2023/04/04 00:25:51;;;;;;;3.75;1.90;;;1.00;99.90;;;;;;4862781;29;20052;-70
2023/04/04 00:28:20;;;;;;;5.80;2.58;;;1.00;99.90;;;;;;4858673;29;20045;-70
2023/04/04 00:30:47;;;;;;;5.28;2.17;;;1.00;99.90;;;;;;4857045;29;20047;-70
2023/04/04 00:33:13;;;;;;;5.47;2.30;;;0.90;99.90;;;;;;4878731;29;20040;-70
2023/04/04 00:35:39;;;;;;;4.65;2.17;;;0.90;99.90;;;;;;4878860;29;20040;-70
2023/04/04 00:38:06;;;;;;;4.40;1.92;;;0.80;99.90;;;;;;4863806;29;20584;-70
2023/04/04 00:40:39;;;;;;;6.05;2.20;;;0.80;99.90;;;;;;4878602;29;20048;-70
2023/04/04 00:43:06;;;;;;;5.00;2.50;;;0.80;99.90;;;;;;4879010;29;20049;-70
2023/04/04 00:45:33;;;;;;;7.75;2.10;;;0.70;99.90;;;;;;4879080;29;20124;-71
2023/04/04 00:48:01;;;;;;;5.43;2.53;;;0.70;99.90;;;;;;4879472;29;20476;-70
2023/04/04 00:50:27;;;;;;;5.78;2.67;;;0.70;99.90;;;;;;4878528;29;20438;-70
2023/04/04 00:52:53;;;;;;;4.17;2.23;;;0.70;99.90;;;;;;4878131;29;20135;-70
2023/04/04 00:55:19;;;;;;;5.53;2.70;;;0.70;99.90;;;;;;4856602;29;20072;-70
2023/04/04 00:57:45;;;;;;;4.00;2.30;;;0.70;99.90;;;;;;4869775;29;20068;-70
2023/04/04 01:00:12;;;;;;;6.03;2.72;;;0.80;99.90;;;;;;4867221;29;20032;-70
2023/04/04 01:02:38;;;;;;;4.70;2.47;;;0.80;99.90;;;;;;4869605;29;20124;-70
2023/04/04 01:05:04;;;;;;;6.77;2.50;;;0.80;99.90;;;;;;4860385;29;20131;-70
2023/04/04 01:07:30;;;;;;;6.00;2.65;;;0.80;99.90;;;;;;4876825;29;20059;-70
2023/04/04 01:09:57;;;;;;;7.10;3.50;;;0.80;99.90;;;;;;4877614;29;20417;-70
2023/04/04 01:12:23;;;;;;;8.75;3.03;;;0.90;99.90;;;;;;4877377;29;20680;-70
2023/04/04 01:14:50;;;;;;;5.47;2.63;;;0.90;99.90;;;;;;4878027;29;20046;-70
2023/04/04 01:17:16;;;;;;;8.65;2.95;;;0.90;99.90;;;;;;4878444;29;20513;-70
2023/04/04 01:20:00;;;;;;;7.03;3.30;;;0.80;99.90;;;;;;4877981;29;20041;-70
2023/04/04 01:22:28;;;;;;;6.35;2.88;;;0.80;99.90;;;;;;4861786;29;20044;-70
2023/04/04 01:24:55;;;;;;;6.43;3.05;;;0.80;99.90;;;;;;4862448;29;20378;-70
2023/04/04 01:27:20;;;;;;;7.57;2.97;;;0.70;99.90;;;;;;4877454;29;20442;-70
2023/04/04 01:29:46;;;;;;;6.97;2.63;;;0.70;99.90;;;;;;4877444;29;20080;-70
2023/04/04 01:32:18;;;;;;;8.98;3.63;;;0.70;99.90;;;;;;4872479;29;20063;-70
2023/04/04 01:34:59;;;;;;;7.55;3.22;;;0.60;99.90;;;;;;4857131;29;20041;-70
2023/04/04 01:37:41;;;;;;;6.93;3.35;;;0.60;99.90;;;;;;4869123;29;20075;-70
2023/04/04 01:40:23;;;;;;;6.78;3.00;;;0.60;99.90;;;;;;4877928;29;20386;-70
2023/04/04 01:42:50;;;;;;;9.63;3.65;;;0.50;99.90;;;;;;4861534;29;20754;-70
2023/04/04 01:45:16;;;;;;;6.47;3.42;;;0.50;99.90;;;;;;4870945;29;20052;-70
2023/04/04 01:47:42;;;;;;;8.50;3.60;;;0.50;99.90;;;;;;4877674;29;20417;-70
2023/04/04 01:50:09;;;;;;;8.65;3.47;;;0.50;99.90;;;;;;4877492;29;20127;-70
2023/04/04 01:52:36;;;;;;;8.20;3.75;;;0.50;99.90;;;;;;4876645;29;20048;-70
2023/04/04 01:55:02;;;;;;;7.75;3.53;;;0.40;99.90;;;;;;4872560;29;20890;-70
2023/04/04 01:57:28;;;;;;;6.80;3.70;;;0.40;99.90;;;;;;4867891;29;20040;-70
2023/04/04 01:59:54;;;;;;;9.45;4.45;;;0.50;99.90;;;;;;4870016;29;20613;-70
2023/04/04 02:02:20;;;;;;;6.13;3.37;;;0.50;99.90;;;;;;4877230;29;20131;-70
2023/04/04 02:04:46;;;;;;;8.27;3.60;;;0.50;99.90;;;;;;4876328;29;20485;-70
2023/04/04 02:07:13;;;;;;;6.30;3.55;;;0.50;99.90;;;;;;4877188;29;20127;-70
2023/04/04 02:09:38;;;;;;;6.20;3.53;;;0.50;99.90;;;;;;4861772;29;20390;-70
2023/04/04 02:12:05;;;;;;;10.97;3.50;;;0.40;99.90;;;;;;4876947;29;20040;-70
2023/04/04 02:14:30;;;;;;;8.77;3.60;;;0.40;99.90;;;;;;4861397;29;20122;-70
2023/04/04 02:16:56;;;;;;;8.10;3.87;;;0.40;99.90;;;;;;4876750;29;20088;-70
2023/04/04 02:19:23;;;;;;;9.13;3.93;;;0.30;99.90;;;;;;4876926;29;20775;-70
2023/04/04 02:21:49;;;;;;;9.88;3.95;;;0.30;99.90;;;;;;4877033;29;20099;-70
2023/04/04 02:24:14;;;;;;;7.17;4.10;;;0.30;99.90;;;;;;4876035;29;20065;-70
2023/04/04 02:26:40;;;;;;;10.23;4.00;;;0.30;99.90;;;;;;4875062;29;20083;-70
2023/04/04 02:29:06;;;;;;;9.10;4.30;;;0.30;99.90;;;;;;4877595;29;20041;-70
2023/04/04 02:31:32;;;;;;;7.27;4.00;;;0.20;99.90;;;;;;4877366;29;20053;-70
2023/04/04 02:33:58;;;;;;;6.18;3.67;;;0.20;99.90;;;;;;4877381;29;20043;-70
2023/04/04 02:36:24;;;;;;;7.00;4.20;;;0.20;99.90;;;;;;4875668;29;20072;-70
2023/04/04 02:38:50;;;;;;;6.80;3.53;;;0.10;99.90;;;;;;4864444;29;20044;-70
2023/04/04 02:41:15;;;;;;;7.30;4.10;;;0.10;99.90;;;;;;4876468;29;20056;-70
2023/04/04 02:43:41;;;;;;;9.80;4.20;;;0.10;99.90;;;;;;4876119;29;20037;-70
2023/04/04 02:46:07;;;;;;;8.07;4.47;;;0.00;99.90;;;;;;4875017;29;20433;-70
2023/04/04 02:48:33;;;;;;;7.87;4.33;;;0.00;99.90;;;;;;4881204;29;20488;-70
2023/04/04 02:50:59;;;;;;;8.45;4.03;;;-0.10;99.90;;;;;;4874154;29;20176;-70
2023/04/04 02:53:24;;;;;;;11.43;4.70;;;-0.20;99.90;;;;;;4881215;29;20127;-70
2023/04/04 02:55:50;;;;;;;11.23;4.23;;;-0.20;99.90;;;;;;4879127;29;20055;-70
2023/04/04 02:58:16;;;;;;;9.67;3.97;;;-0.20;99.90;;;;;;4880444;29;20460;-70
2023/04/04 03:00:42;;;;;;;8.13;4.30;;;-0.20;99.90;;;;;;4880236;29;20048;-70
2023/04/04 03:03:08;;;;;;;7.50;3.97;;;-0.30;99.90;;;;;;4880354;29;20049;-70
2023/04/04 03:05:34;;;;;;;7.30;4.70;;;-0.30;99.90;;;;;;4879689;29;20047;-70
2023/04/04 03:08:03;;;;;;;9.10;4.30;;;-0.30;99.90;;;;;;4879578;29;20068;-70
2023/04/04 03:10:29;;;;;;;9.15;4.20;;;-0.40;99.90;;;;;;4865047;29;20060;-70
2023/04/04 03:12:56;;;;;;;9.75;4.75;;;-0.40;99.90;;;;;;4853675;29;20045;-70
2023/04/04 03:15:22;;;;;;;8.77;4.30;;;-0.50;99.90;;;;;;4879496;29;20047;-70
2023/04/04 03:17:48;;;;;;;7.97;4.15;;;-0.50;99.90;;;;;;4872977;29;20179;-70
2023/04/04 03:20:15;;;;;;;8.50;5.17;;;-0.50;99.90;;;;;;4880468;29;20111;-70
2023/04/04 03:22:41;;;;;;;7.85;3.90;;;-0.60;99.90;;;;;;4864882;29;20304;-70
2023/04/04 03:25:07;;;;;;;8.70;4.30;;;-0.60;99.90;;;;;;4880237;29;20493;-70
2023/04/04 03:27:33;;;;;;;8.20;4.40;;;-0.70;99.90;;;;;;4864123;29;20049;-70
2023/04/04 03:29:59;;;;;;;7.17;4.17;;;-0.70;99.90;;;;;;4870139;29;20048;-70
2023/04/04 03:32:26;;;;;;;9.63;4.50;;;-0.70;99.90;;;;;;4863865;29;20392;-70
2023/04/04 03:34:52;;;;;;;10.38;4.30;;;-0.80;99.90;;;;;;4879248;29;20454;-70
2023/04/04 03:37:18;;;;;;;8.40;4.63;;;-0.80;99.90;;;;;;4858377;29;20072;-70
2023/04/04 03:39:44;;;;;;;9.15;4.25;;;-0.80;99.90;;;;;;4872470;29;20372;-70
2023/04/04 03:42:10;;;;;;;7.00;4.05;;;-0.80;99.90;;;;;;4858040;29;20056;-70
2023/04/04 03:44:42;;;;;;;12.90;4.70;;;-0.90;99.90;;;;;;4880571;29;20045;-70
2023/04/04 03:47:08;;;;;;;7.57;4.18;;;-0.90;99.90;;;;;;4878874;29;20045;-70
2023/04/04 03:49:33;;;;;;;7.97;4.38;;;-0.90;99.90;;;;;;4875410;29;20531;-70
2023/04/04 03:52:01;;;;;;;8.10;4.53;;;-1.00;99.90;;;;;;4877156;29;20093;-70
2023/04/04 03:54:28;;;;;;;11.95;4.55;;;-1.00;99.90;;;;;;4874472;29;20572;-70
2023/04/04 03:56:54;;;;;;;12.07;4.45;;;-1.00;99.90;;;;;;4855553;29;20056;-70
2023/04/04 03:59:20;;;;;;;6.57;4.25;;;-1.00;99.90;;;;;;4879148;29;20048;-70
2023/04/04 04:01:46;;;;;;;7.63;4.20;;;-1.00;99.90;;;;;;4863869;29;20052;-70
2023/04/04 04:04:12;;;;;;;10.50;4.40;;;-1.10;99.90;;;;;;4879241;29;20112;-70
2023/04/04 04:06:37;;;;;;;11.53;4.73;;;-1.10;99.90;;;;;;4863714;29;20444;-70
2023/04/04 04:09:03;;;;;;;8.73;4.30;;;-1.10;99.90;;;;;;4878383;29;20083;-70
2023/04/04 04:11:29;;;;;;;8.07;4.33;;;-1.10;99.90;;;;;;4870036;29;20049;-70
2023/04/04 04:13:55;;;;;;;9.10;4.68;;;-1.10;99.90;;;;;;4878399;29;20103;-70
2023/04/04 04:16:21;;;;;;;8.90;4.53;;;-1.10;99.90;;;;;;4878577;29;20036;-70
2023/04/04 04:18:47;;;;;;;8.87;4.43;;;-1.10;99.90;;;;;;4878012;29;20043;-70
2023/04/04 04:21:13;;;;;;;9.13;4.70;;;-1.10;99.90;;;;;;4877782;29;20552;-70
2023/04/04 04:23:39;;;;;;;9.02;3.97;;;-1.10;99.90;;;;;;4871002;29;20049;-70
2023/04/04 04:26:05;;;;;;;8.97;4.27;;;-1.10;99.90;;;;;;4876066;29;20139;-70
2023/04/04 04:28:31;;;;;;;9.50;5.25;;;-1.10;99.90;;;;;;4869336;29;20061;-70
2023/04/04 04:31:07;;;;;;;12.05;4.88;;;-1.10;99.90;;;;;;4878692;29;20119;-70
2023/04/04 04:33:33;;;;;;;7.07;4.88;;;-1.10;99.90;;;;;;4878910;29;20072;-70
2023/04/04 04:36:00;;;;;;;7.65;4.78;;;-1.10;99.90;;;;;;4868728;29;20084;-70
2023/04/04 04:38:27;;;;;;;9.45;4.93;;;-1.20;99.90;;;;;;4877848;29;20045;-70
2023/04/04 04:40:53;;;;;;;10.60;5.15;;;-1.20;99.90;;;;;;4859860;29;20048;-70
2023/04/04 04:43:19;;;;;;;8.10;4.80;;;-1.20;99.90;;;;;;4878046;29;20379;-70
2023/04/04 04:45:45;;;;;;;8.57;4.53;;;-1.20;99.90;;;;;;4878818;29;20422;-70
2023/04/04 04:48:12;;;;;;;8.18;4.97;;;-1.20;99.90;;;;;;4871153;29;20045;-70
2023/04/04 04:50:38;;;;;;;7.68;4.90;;;-1.20;99.90;;;;;;4861312;29;20041;-70
2023/04/04 04:53:03;;;;;;;7.60;4.65;;;-1.20;99.90;;;;;;4877350;29;20041;-70
2023/04/04 04:55:32;;;;;;;11.88;4.90;;;-1.20;99.90;;;;;;4870546;29;20051;-70
2023/04/04 04:57:58;;;;;;;10.90;4.80;;;-1.20;99.90;;;;;;4878353;29;20139;-70
2023/04/04 05:00:23;;;;;;;10.90;4.90;;;-1.20;99.90;;;;;;4862698;29;20911;-70
2023/04/04 05:02:49;;;;;;;8.83;5.23;;;-1.10;99.90;;;;;;4878009;29;20040;-70
2023/04/04 05:05:15;;;;;;;8.40;4.63;;;-1.20;99.90;;;;;;4875847;29;20131;-69
2023/04/04 05:07:48;;;;;;;6.97;4.43;;;-1.20;99.90;;;;;;4876988;29;20612;-70
2023/04/04 05:10:14;;;;;;;8.10;4.93;;;-1.20;99.90;;;;;;4860639;29;20060;-69
2023/04/04 05:12:43;;;;;;;9.82;4.75;;;-1.20;99.90;;;;;;4875301;29;20077;-70
2023/04/04 05:15:11;;;;;;;7.47;4.47;;;-1.20;99.90;;;;;;4878038;29;20477;-70
2023/04/04 05:17:38;;;;;;;9.02;4.90;;;-1.20;99.90;;;;;;4876361;29;20076;-70
2023/04/04 05:20:04;;;;;;;11.50;5.32;;;-1.20;99.90;;;;;;4862302;29;20036;-70
2023/04/04 05:22:30;;;;;;;10.45;4.75;;;-1.20;99.90;;;;;;4877689;29;20119;-70
2023/04/04 05:24:56;;;;;;;8.37;5.17;;;-1.20;99.90;;;;;;4877993;29;20049;-70
2023/04/04 05:27:21;;;;;;;9.60;4.63;;;-1.20;99.90;;;;;;4873604;29;20041;-70
2023/04/04 05:29:47;;;;;;;9.33;5.17;;;-1.10;99.90;;;;;;4877243;29;20107;-70
2023/04/04 05:32:13;;;;;;;15.07;6.33;;;-1.20;99.90;;;;;;4861602;29;20123;-70
2023/04/04 05:34:39;;;;;;;11.65;5.88;;;-1.10;99.90;;;;;;4862815;29;20617;-70
2023/04/04 05:37:05;;;;;;;9.83;5.13;;;-1.10;99.90;;;;;;4862796;29;20127;-70
2023/04/04 05:39:31;;;;;;;11.17;5.40;;;-1.10;99.90;;;;;;4862314;29;20292;-70
2023/04/04 05:41:56;;;;;;;10.90;5.33;;;-1.00;99.90;;;;;;4877769;29;20514;-70
2023/04/04 05:44:22;;;;;;;11.37;5.27;;;-1.00;99.90;;;;;;4862147;29;20157;-70
2023/04/04 05:46:48;;;;;;;9.07;5.00;;;-0.90;99.90;;;;;;4873918;29;20075;-70
2023/04/04 05:49:13;;;;;;;8.83;4.57;;;-0.90;99.90;;;;;;4878074;29;20135;-70
2023/04/04 05:51:39;;;;;;;11.20;4.90;;;-0.80;99.90;;;;;;4860220;29;20060;-70
2023/04/04 05:54:08;;;;;;;9.40;4.77;;;-0.80;99.90;;;;;;4876800;29;20036;-70
2023/04/04 05:56:33;;;;;;;8.93;4.97;;;-0.70;99.90;;;;;;4859084;29;20163;-69
2023/04/04 05:58:59;;;;;;;11.40;4.73;;;-0.70;99.90;;;;;;4877468;29;20072;-69
2023/04/04 06:01:25;;;;;;;11.50;5.72;;;-0.60;99.90;;;;;;4876961;29;20140;-70
2023/04/04 06:03:51;;;;;;;9.23;5.40;;;-0.50;99.90;;;;;;4876570;29;20089;-70
2023/04/04 06:06:17;;;;;;;8.83;4.90;;;-0.50;99.90;;;;;;4868361;29;20053;-70
2023/04/04 06:08:43;;;;;;;9.70;4.50;;;-0.40;99.90;;;;;;4861078;29;20056;-70
2023/04/04 06:11:08;;;;;;;7.85;4.75;;;-0.30;99.90;;;;;;4870572;29;20049;-70
2023/04/04 06:13:34;;;;;;;8.47;4.67;;;-0.20;99.90;;;;;;4857877;29;20132;-70
2023/04/04 06:16:00;;;;;;;9.60;4.90;;;-0.10;99.90;;;;;;4871938;29;20051;-70
2023/04/04 06:18:26;;;;;;;8.97;4.13;;;0.00;99.90;;;;;;4876172;29;20080;-70
2023/04/04 06:20:51;;;;;;;8.80;4.30;;;0.10;99.90;;;;;;4875682;29;20409;-70
2023/04/04 06:23:17;;;;;;;10.00;4.67;;;0.20;99.90;;;;;;4862142;29;20048;-71
2023/04/04 06:25:43;;;;;;;8.93;4.63;;;0.20;99.90;;;;;;4862786;29;20454;-70
2023/04/04 06:28:10;;;;;;;7.90;4.40;;;0.40;99.90;;;;;;4861850;29;20044;-70
2023/04/04 06:30:36;;;;;;;12.07;4.72;;;0.50;99.90;;;;;;4861638;29;20044;-70
2023/04/04 06:33:05;;;;;;;8.75;4.60;;;0.60;99.90;;;;;;4873075;29;20049;-70
2023/04/04 06:35:31;;;;;;;9.35;3.97;;;0.70;99.90;;;;;;4876818;29;20044;-70
2023/04/04 06:37:57;;;;;;;7.65;3.90;;;0.80;99.90;;;;;;4861396;29;20043;-70
2023/04/04 06:40:23;;;;;;;6.22;4.22;;;0.90;99.90;;;;;;4877559;29;20054;-70
2023/04/04 06:42:51;;;;;;;8.30;4.30;;;1.00;99.90;;;;;;4878700;29;20040;-71
2023/04/04 06:45:17;;;;;;;7.70;4.13;;;1.00;99.90;;;;;;4863601;29;20608;-71
2023/04/04 06:47:43;;;;;;;7.07;4.32;;;1.00;99.90;;;;;;4875456;29;20132;-70
2023/04/04 06:50:09;;;;;;;10.93;3.85;;;1.00;99.90;;;;;;4875544;29;20051;-70
2023/04/04 06:52:35;;;;;;;9.48;4.18;;;1.00;99.90;;;;;;4876887;29;20045;-70
2023/04/04 06:55:01;;;;;;;7.00;3.70;;;1.10;99.90;;;;;;4877659;29;20041;-71
2023/04/04 06:57:27;;;;;;;7.70;3.97;;;1.10;99.90;;;;;;4868695;29;20458;-71
2023/04/04 06:59:53;;;;;;;7.80;3.73;;;1.20;99.90;;;;;;4859574;29;20051;-71
2023/04/04 07:02:18;;;;;;;9.00;4.00;;;1.30;99.90;;;;;;4857685;29;20493;-71
2023/04/04 07:04:44;;;;;;;7.83;3.90;;;1.40;99.90;;;;;;4877550;29;20055;-71
2023/04/04 07:07:11;;;;;;;14.57;4.23;;;1.50;99.90;;;;;;4877943;29;20044;-71
2023/04/04 07:09:36;;;;;;;12.23;3.42;;;1.60;99.90;;;;;;4862210;29;20061;-71
2023/04/04 07:12:03;;;;;;;7.23;3.87;;;1.70;99.90;;;;;;4861786;29;20056;-70
2023/04/04 07:14:29;;;;;;;7.03;4.05;;;1.80;99.90;;;;;;4877855;29;20044;-70
2023/04/04 07:16:54;;;;;;;5.07;2.87;;;1.90;99.90;;;;;;4862302;29;20040;-71
2023/04/04 07:19:23;;;;;;;7.80;3.37;;;2.00;99.90;;;;;;4867651;29;20080;-70
2023/04/04 07:21:49;;;;;;;7.03;3.53;;;2.00;99.90;;;;;;4879379;29;20420;-70
2023/04/04 07:24:15;;;;;;;7.32;3.72;;;2.10;99.90;;;;;;4880191;29;20076;-70
2023/04/04 07:26:41;;;;;;;7.43;3.60;;;2.10;99.90;;;;;;4880626;29;20044;-71
2023/04/04 07:29:06;;;;;;;13.63;4.60;;;2.10;99.90;;;;;;4873237;29;20132;-71
2023/04/04 07:31:32;;;;;;;6.20;3.47;;;2.10;99.90;;;;;;4883796;29;20591;-70
2023/04/04 07:33:58;;;;;;;6.50;3.73;;;2.20;99.90;;;;;;4862857;29;20105;-70
2023/04/04 07:36:24;;;;;;;9.63;4.07;;;2.20;99.90;;;;;;4873639;29;20044;-71
2023/04/04 07:38:50;;;;;;;9.07;3.73;;;2.30;99.90;;;;;;4867818;29;20091;-71
2023/04/04 07:41:16;;;;;;;8.03;3.53;;;2.40;99.90;;;;;;4883135;29;20292;-71
2023/04/04 07:43:42;;;;;;;6.60;3.22;;;2.60;99.90;;;;;;4867863;29;20048;-71
2023/04/04 07:46:08;;;;;;;5.18;3.45;;;2.70;99.90;;;;;;4867556;29;20401;-71
2023/04/04 07:48:34;;;;;;;6.37;3.63;;;2.80;99.90;;;;;;4867680;29;20040;-71
2023/04/04 07:51:03;;;;;;;6.47;3.70;;;2.90;99.90;;;;;;4866706;29;20477;-70
2023/04/04 07:53:29;;;;;;;6.95;3.72;;;3.00;99.90;;;;;;4880800;29;20285;-70
2023/04/04 07:55:55;;;;;;;10.40;4.07;;;3.10;99.90;;;;;;4876597;29;20534;-70
2023/04/04 07:58:21;;;;;;;5.93;3.57;;;3.30;99.90;;;;;;4864843;29;20044;-71
2023/04/04 08:00:47;;;;;;;7.40;3.90;;;3.40;99.90;;;;;;4881722;29;20512;-71
2023/04/04 08:03:13;;;;;;;5.85;3.65;;;3.60;99.90;;;;;;4882732;29;20087;-70
2023/04/04 08:05:40;;;;;;;6.65;3.13;;;3.70;99.90;;;;;;4867606;29;20044;-70
2023/04/04 08:08:06;;;;;;;6.85;3.17;;;3.80;99.90;;;;;;4881565;29;20040;-70
2023/04/04 08:10:32;;;;;;;7.83;3.47;;;3.90;99.90;;;;;;4882464;29;20049;-70
2023/04/04 08:12:58;;;;;;;5.50;3.33;;;4.00;99.90;;;;;;4882705;29;20049;-71
2023/04/04 08:15:23;;;;;;;7.90;3.67;;;4.00;99.90;;;;;;4883121;29;20036;-70
2023/04/04 08:17:49;;;;;;;6.30;3.20;;;4.00;99.90;;;;;;4882183;29;20044;-70
2023/04/04 08:20:15;;;;;;;5.00;3.10;;;4.00;99.90;;;;;;4875952;29;20048;-73
2023/04/04 08:22:42;;;;;;;6.47;3.80;;;4.00;99.90;;;;;;4873401;29;20048;-70
2023/04/04 08:25:08;;;;;;;6.65;3.20;;;4.00;99.90;;;;;;4881499;29;20288;-70
2023/04/04 08:27:34;;;;;;;6.68;3.50;;;4.10;99.90;;;;;;4875170;29;20044;-70
2023/04/04 08:30:02;;;;;;;6.67;3.20;;;4.10;99.90;;;;;;4879877;29;20055;-70
2023/04/04 08:32:28;;;;;;;6.43;3.05;;;4.30;99.90;;;;;;4862852;29;20417;-70
2023/04/04 08:34:54;;;;;;;6.40;2.70;;;4.40;99.90;;;;;;4864408;29;20044;-71
2023/04/04 08:37:20;;;;;;;6.77;3.00;;;4.50;99.90;;;;;;4870443;29;20131;-69
2023/04/04 08:39:45;;;;;;;5.67;3.00;;;4.60;99.90;;;;;;4871186;29;20045;-70
2023/04/04 08:42:16;;;;;;;6.20;3.30;;;4.70;99.90;;;;;;4858748;29;20297;-70
2023/04/04 08:44:44;;;;;;;6.85;3.35;;;4.80;99.90;;;;;;4879215;29;20087;-70
2023/04/04 08:47:12;;;;;;;4.88;2.55;;;4.90;99.90;;;;;;4879360;29;20053;-70
2023/04/04 08:49:42;;;;;;;7.00;3.47;;;4.90;99.90;;;;;;4879203;29;20048;-70
2023/04/04 08:52:13;;;;;;;8.60;3.58;;;5.00;99.90;;;;;;4876047;29;20670;-70
2023/04/04 08:54:40;;;;;;;5.63;2.58;;;5.10;99.90;;;;;;4855995;29;20040;-70
2023/04/04 08:57:07;;;;;;;10.43;3.42;;;5.10;99.90;;;;;;4854286;29;20392;-70
2023/04/04 08:59:33;;;;;;;8.10;3.22;;;5.20;99.90;;;;;;4863620;29;20040;-70
2023/04/04 09:02:16;;;;;;;6.55;2.50;;;5.20;99.90;;;;;;4878388;29;20063;-70
2023/04/04 09:04:43;;;;;;;7.32;3.13;;;5.30;99.90;;;;;;4872955;29;20112;-70
2023/04/04 09:07:11;;;;;;;3.60;2.40;;;5.40;99.90;;;;;;4863165;29;20080;-70
2023/04/04 09:09:38;;;;;;;4.57;2.50;;;5.50;99.90;;;;;;4878583;29;20099;-70
2023/04/04 09:12:04;;;;;;;8.88;3.00;;;5.60;99.90;;;;;;4876710;29;20045;-69
2023/04/04 09:14:31;;;;;;;6.28;3.03;;;5.80;99.90;;;;;;4878272;29;20045;-70
2023/04/04 09:16:56;;;;;;;7.85;2.88;;;6.00;99.90;;;;;;4872324;29;20051;-70
2023/04/04 09:19:22;;;;;;;5.77;2.40;;;6.30;99.90;;;;;;4848514;29;20131;-71
2023/04/04 09:21:49;;;;;;;5.57;2.80;;;6.40;99.90;;;;;;4852383;29;20442;-71
2023/04/04 09:24:17;;;;;;;8.07;2.70;;;6.60;99.90;;;;;;4877679;29;20508;-71
2023/04/04 09:26:51;;;;;;;4.25;2.75;;;6.70;99.90;;;;;;4878441;29;20048;-71
2023/04/04 09:29:20;;;;;;;6.38;2.90;;;6.90;99.90;;;;;;4878341;29;20489;-71
2023/04/04 09:31:48;;;;;;;5.72;2.65;;;7.00;99.90;;;;;;4878366;29;20044;-71
2023/04/04 09:34:19;;;;;;;7.72;2.90;;;7.00;99.90;;;;;;4875704;29;20052;-70
2023/04/04 09:36:45;;;;;;;3.95;2.42;;;7.10;99.90;;;;;;4870098;29;20047;-70
2023/04/04 09:39:12;;;;;;;5.15;3.20;;;7.10;99.90;;;;;;4867577;29;20044;-70
2023/04/04 09:41:38;;;;;;;6.30;2.75;;;7.20;99.90;;;;;;4878470;29;20561;-70
2023/04/04 09:44:06;;;;;;;3.78;2.40;;;7.30;99.90;;;;;;4876933;29;20115;-70
2023/04/04 09:46:34;;;;;;;4.07;2.30;;;7.40;99.90;;;;;;4862505;29;20045;-71
2023/04/04 09:49:00;;;;;;;8.52;2.95;;;7.50;99.90;;;;;;4877982;29;20079;-71
2023/04/04 09:51:37;;;;;;;3.57;1.93;;;7.60;99.90;;;;;;4853057;29;20409;-70
2023/04/04 09:54:05;;;;;;;5.40;2.08;;;7.70;99.90;;;;;;4876160;29;20033;-70
2023/04/04 09:56:33;;;;;;;5.40;2.13;;;7.70;99.90;;;;;;4860980;29;20055;-70
2023/04/04 09:59:00;;;;;;;5.65;2.42;;;7.70;99.90;;;;;;4878133;29;20552;-71
2023/04/04 10:01:27;;;;;;;4.35;2.00;;;7.80;99.90;;;;;;4877633;29;20049;-71
2023/04/04 10:03:54;;;;;;;5.20;2.03;;;7.70;99.90;;;;;;4876994;29;20052;-71
2023/04/04 10:06:21;;;;;;;5.18;2.88;;;7.90;99.90;;;;;;4877338;29;20040;-71
2023/04/04 10:08:47;;;;;;;5.35;2.20;;;8.00;99.00;;;;;;4877489;29;20053;-71
2023/04/04 10:11:33;;;;;;;5.82;2.22;;;8.10;91.00;;;;;;4862229;29;20079;-71
2023/04/04 10:14:00;;;;;;;4.90;1.83;;;8.20;92.60;;;;;;4868259;29;20049;-71
2023/04/04 10:16:33;;;;;;;4.43;2.42;;;8.30;87.40;;;;;;4875884;29;20053;-71
2023/04/04 10:19:01;;;;;;;3.58;2.35;;;8.40;78.70;;;;;;4862413;29;20044;-70
2023/04/04 10:21:26;;;;;;;6.35;3.28;;;8.50;73.10;;;;;;4862156;29;20041;-71
2023/04/04 10:23:53;;;;;;;6.60;3.33;;;8.60;73.30;;;;;;4876618;29;20044;-71
2023/04/04 10:26:18;;;;;;;5.15;2.90;;;8.70;69.10;;;;;;4872647;29;20112;-71
2023/04/04 10:28:44;;;;;;;4.07;2.10;;;8.70;68.40;;;;;;4853705;29;20478;-70
2023/04/04 10:31:26;;;;;;;3.67;2.33;;;8.80;65.30;;;;;;4860214;29;20040;-71
2023/04/04 10:34:13;;;;;;;5.35;2.70;;;8.90;64.00;;;;;;4852332;29;20041;-71
2023/04/04 10:36:49;;;;;;;5.32;2.58;;;9.00;63.10;;;;;;4866692;29;20520;-71
2023/04/04 10:39:27;;;;;;;5.25;2.25;;;9.00;61.50;;;;;;4857986;29;20045;-71
2023/04/04 10:41:55;;;;;;;4.72;2.45;;;9.00;62.10;;;;;;4855506;29;20455;-71
2023/04/04 10:44:32;;;;;;;5.07;2.35;;;9.10;64.30;;;;;;4862954;29;20057;-72
2023/04/04 10:47:13;;;;;;;3.58;1.90;;;9.20;63.50;;;;;;4876356;29;20504;-71
2023/04/04 10:49:42;;;;;;;5.07;2.65;;;9.30;63.10;;;;;;4857280;29;20249;-72
2023/04/04 10:52:09;;;;;;;5.43;2.20;;;9.40;65.00;;;;;;4891415;29;20583;-72
2023/04/04 10:54:35;;;;;;;6.07;2.42;;;9.40;61.70;;;;;;4878160;29;20035;-72
2023/04/04 10:57:02;;;;;;;4.70;2.63;;;9.50;60.90;;;;;;4877573;29;20707;-71
2023/04/04 10:59:28;;;;;;;6.38;2.38;;;9.50;60.70;;;;;;4878599;29;20052;-72
2023/04/04 11:02:02;;;;;;;6.37;2.90;;;9.60;58.80;;;;;;4861593;29;20108;-72
2023/04/04 11:04:32;;;;;;;3.70;2.28;;;9.70;58.90;;;;;;4878781;29;20131;-71
2023/04/04 11:07:04;;;;;;;4.78;2.75;;;9.70;59.40;;;;;;4865719;29;20048;-72
2023/04/04 11:09:51;;;;;;;4.43;2.25;;;9.70;57.80;;;;;;4864969;29;20060;-72
2023/04/04 11:12:37;;;;;;;5.53;2.72;;;9.80;54.40;;;;;;4874414;29;20056;-71
2023/04/04 11:15:03;;;;;;;5.95;2.20;;;9.90;57.20;;;;;;4880811;29;20052;-72
2023/04/04 11:17:47;;;;;;;4.13;2.30;;;10.00;56.80;;;;;;4880452;29;20044;-72
2023/04/04 11:20:29;;;;;;;4.90;2.47;;;10.10;54.60;;;;;;4870962;29;20144;-71
2023/04/04 11:23:03;;;;;;;6.28;2.40;;;10.20;55.10;;;;;;4881114;29;20057;-71
2023/04/04 11:25:34;;;;;;;6.13;2.65;;;10.20;54.20;;;;;;4863926;29;20513;-72
2023/04/04 11:28:06;;;;;;;5.55;2.60;;;10.30;56.00;;;;;;4881371;29;20115;-72
2023/04/04 11:30:38;;;;;;;6.90;2.70;;;10.40;55.10;;;;;;4881337;29;20119;-71
2023/04/04 11:33:03;;;;;;;6.53;2.78;;;10.60;54.30;;;;;;4881045;29;20044;-71
2023/04/04 11:35:29;;;;;;;4.50;2.50;;;10.70;54.70;;;;;;4876193;29;20072;-71
2023/04/04 11:37:55;;;;;;;5.97;2.50;;;10.80;52.70;;;;;;4865966;29;20131;-72
2023/04/04 11:40:34;;;;;;;5.17;2.53;;;10.90;55.40;;;;;;4876276;29;20053;-72
2023/04/04 11:43:05;;;;;;;4.90;2.57;;;11.10;53.50;;;;;;4881382;29;20495;-72
2023/04/04 11:45:36;;;;;;;5.17;2.70;;;11.20;54.00;;;;;;4880478;29;20292;-72
2023/04/04 11:48:05;;;;;;;6.77;2.30;;;11.30;53.90;;;;;;4880408;29;20308;-71
2023/04/04 11:50:37;;;;;;;6.57;2.53;;;11.30;52.50;;;;;;4865057;29;20320;-71
2023/04/04 11:53:11;;;;;;;6.87;3.27;;;11.20;51.40;;;;;;4880764;29;20311;-72
2023/04/04 11:55:41;;;;;;;5.20;2.83;;;11.30;52.60;;;;;;4877476;29;20337;-72
2023/04/04 11:58:12;;;;;;;6.10;2.97;;;11.40;52.10;;;;;;4876771;29;20281;-71
2023/04/04 12:00:38;;;;;;;7.13;2.83;;;11.40;51.90;;;;;;4880167;29;20285;-72
2023/04/04 12:03:12;;;;;;;4.97;2.60;;;11.50;52.60;;;;;;4880809;29;20793;-71
2023/04/04 12:05:42;;;;;;;8.17;3.00;;;11.60;52.60;;;;;;4865240;29;20344;-72
2023/04/04 12:08:11;;;;;;;7.67;3.00;;;11.70;51.80;;;;;;4880255;29;20285;-72
2023/04/04 12:10:43;;;;;;;6.07;3.00;;;11.50;50.00;;;;;;4861507;29;20471;-71
2023/04/04 12:13:09;;;;;;;3.97;2.50;;;11.50;51.30;;;;;;4879711;29;20813;-71
2023/04/04 12:15:36;;;;;;;4.17;2.70;;;11.50;51.00;;;;;;4879409;29;20536;-71
2023/04/04 12:18:20;;;;;;;6.73;2.90;;;11.60;50.80;;;;;;4877598;29;20281;-71
2023/04/04 12:20:55;;;;;;;6.13;2.80;;;11.70;49.40;;;;;;4861877;29;20413;-71
2023/04/04 12:23:21;;;;;;;6.25;2.95;;;11.80;50.30;;;;;;4869177;29;20324;-71
2023/04/04 12:25:53;;;;;;;4.93;2.80;;;11.70;49.90;;;;;;4877060;29;20045;-71
2023/04/04 12:28:19;;;;;;;5.80;2.83;;;11.70;48.40;;;;;;4878835;29;20056;-71
2023/04/04 12:30:45;;;;;;;7.70;2.87;;;11.80;48.50;;;;;;4877628;29;20288;-71
2023/04/04 12:33:11;;;;;;;6.77;2.83;;;11.80;47.90;;;;;;4878856;29;20313;-71
2023/04/04 12:35:36;;;;;;;4.20;2.60;;;11.60;47.40;;;;;;4878416;29;20669;-71
2023/04/04 12:38:09;;;;;;;5.57;2.73;;;11.60;47.60;;;;;;4878683;29;20289;-71
2023/04/04 12:40:38;;;;;;;4.73;2.50;;;11.70;48.10;;;;;;4877495;29;20509;-72
2023/04/04 12:43:05;;;;;;;6.80;3.30;;;11.60;48.30;;;;;;4861640;29;20320;-72
2023/04/04 12:45:35;;;;;;;3.77;2.97;;;11.70;48.30;;;;;;4862893;29;20376;-72
2023/04/04 12:48:11;;;;;;;7.10;3.40;;;11.60;47.00;;;;;;4876089;29;20415;-72
2023/04/04 12:50:58;;;;;;;6.63;3.23;;;11.50;48.60;;;;;;4861624;29;20288;-72
2023/04/04 12:53:28;;;;;;;6.17;3.40;;;11.50;48.60;;;;;;4861785;29;20912;-72
2023/04/04 12:55:58;;;;;;;5.43;3.13;;;11.60;47.90;;;;;;4872680;29;20320;-72